Terminal Aerodrome Forecast
Issued by NWS

Home | Current Version | Previous Version | Text Only | Print | Product List | Glossary On
Versions: 1 2 3 4 5 6 7 8 9 10 11 12 13 14 15 16 17 18 19 20 21
000
FTUS44 KCRP 051728
TAFALI
TAF
KALI 051728Z 0518/0618 33012KT P6SM BKN018 OVC025
     FM051930 32014KT P6SM BKN025
     FM052100 30010KT P6SM SCT035
     FM060400 25005KT P6SM SKC
     FM060800 22003KT 2SM BR FEW006
     FM061500 24008KT P6SM SKC=

USA.gov is the U.S. government's official web portal to all federal, state and local government web resources and services.